sensor_id;sensor_type;location;lat;lon;timestamp;pressure;altitude;pressure_sealevel;temperature;humidity
20115;BME280;10218;42.874;25.320;2023-02-26T00:01:13;95977.06;;;15.41;60.97
20115;BME280;10218;42.874;25.320;2023-02-26T00:03:41;95964.84;;;15.57;60.04
20115;BME280;10218;42.874;25.320;2023-02-26T00:06:08;95970.69;;;15.54;59.25
20115;BME280;10218;42.874;25.320;2023-02-26T00:08:35;95960.16;;;15.76;58.33
20115;BME280;10218;42.874;25.320;2023-02-26T00:11:06;95950.56;;;16.03;55.76
20115;BME280;10218;42.874;25.320;2023-02-26T00:13:35;95940.13;;;16.07;54.66
20115;BME280;10218;42.874;25.320;2023-02-26T00:16:09;95950.09;;;15.83;55.38
20115;BME280;10218;42.874;25.320;2023-02-26T00:18:39;95951.00;;;16.00;53.89
20115;BME280;10218;42.874;25.320;2023-02-26T00:21:07;95939.56;;;15.81;54.47
20115;BME280;10218;42.874;25.320;2023-02-26T00:23:40;95936.03;;;15.93;52.98
20115;BME280;10218;42.874;25.320;2023-02-26T00:26:09;95944.59;;;15.78;53.65
20115;BME280;10218;42.874;25.320;2023-02-26T00:28:36;95950.56;;;15.92;52.20
20115;BME280;10218;42.874;25.320;2023-02-26T00:31:03;95957.44;;;16.11;50.99
20115;BME280;10218;42.874;25.320;2023-02-26T00:33:31;95948.22;;;16.07;50.69
20115;BME280;10218;42.874;25.320;2023-02-26T00:36:12;95949.56;;;16.33;49.41
20115;BME280;10218;42.874;25.320;2023-02-26T00:38:46;95947.09;;;16.31;48.83
20115;BME280;10218;42.874;25.320;2023-02-26T00:41:16;95946.41;;;16.36;48.89
20115;BME280;10218;42.874;25.320;2023-02-26T00:43:45;95953.19;;;16.38;48.19
20115;BME280;10218;42.874;25.320;2023-02-26T00:46:20;95955.78;;;16.33;48.08
20115;BME280;10218;42.874;25.320;2023-02-26T00:49:14;95956.81;;;16.44;47.79
20115;BME280;10218;42.874;25.320;2023-02-26T00:51:54;95971.94;;;16.45;47.42
20115;BME280;10218;42.874;25.320;2023-02-26T00:54:27;95965.03;;;16.49;47.54
20115;BME280;10218;42.874;25.320;2023-02-26T00:56:56;95977.91;;;16.47;47.29
20115;BME280;10218;42.874;25.320;2023-02-26T00:59:24;95969.47;;;16.43;47.31
20115;BME280;10218;42.874;25.320;2023-02-26T01:01:51;95964.47;;;16.35;47.48
20115;BME280;10218;42.874;25.320;2023-02-26T01:04:20;95970.31;;;16.44;47.35
20115;BME280;10218;42.874;25.320;2023-02-26T01:06:51;95966.19;;;16.53;47.20
20115;BME280;10218;42.874;25.320;2023-02-26T01:09:30;95967.28;;;16.40;47.42
20115;BME280;10218;42.874;25.320;2023-02-26T01:12:04;95953.66;;;16.58;46.92
20115;BME280;10218;42.874;25.320;2023-02-26T01:14:31;95959.53;;;16.32;47.24
20115;BME280;10218;42.874;25.320;2023-02-26T01:17:16;95959.75;;;16.42;47.19
20115;BME280;10218;42.874;25.320;2023-02-26T01:28:08;95949.19;;;16.52;46.08
20115;BME280;10218;42.874;25.320;2023-02-26T01:30:36;95965.59;;;16.62;45.86
20115;BME280;10218;42.874;25.320;2023-02-26T01:35:49;95966.72;;;16.78;44.96
20115;BME280;10218;42.874;25.320;2023-02-26T01:38:27;95959.13;;;16.52;45.49
20115;BME280;10218;42.874;25.320;2023-02-26T01:43:59;95973.00;;;16.44;45.39
20115;BME280;10218;42.874;25.320;2023-02-26T01:49:03;95974.88;;;16.43;45.13
20115;BME280;10218;42.874;25.320;2023-02-26T01:54:08;95966.06;;;16.48;45.30
20115;BME280;10218;42.874;25.320;2023-02-26T01:56:35;95961.59;;;16.53;45.34
20115;BME280;10218;42.874;25.320;2023-02-26T01:59:04;95962.72;;;16.29;45.63
20115;BME280;10218;42.874;25.320;2023-02-26T02:01:33;95964.47;;;16.35;45.29
20115;BME280;10218;42.874;25.320;2023-02-26T02:04:03;95960.25;;;16.39;45.33
20115;BME280;10218;42.874;25.320;2023-02-26T02:06:33;95968.28;;;16.51;45.15
20115;BME280;10218;42.874;25.320;2023-02-26T02:09:01;95967.16;;;16.35;45.54
20115;BME280;10218;42.874;25.320;2023-02-26T02:11:29;95972.28;;;16.37;45.46
20115;BME280;10218;42.874;25.320;2023-02-26T02:17:33;95964.06;;;16.55;44.97
20115;BME280;10218;42.874;25.320;2023-02-26T02:25:32;95961.06;;;16.40;45.15
20115;BME280;10218;42.874;25.320;2023-02-26T02:42:15;95971.03;;;16.39;45.58
20115;BME280;10218;42.874;25.320;2023-02-26T02:44:48;95960.38;;;16.21;45.98
20115;BME280;10218;42.874;25.320;2023-02-26T02:47:18;95983.91;;;16.37;45.89
20115;BME280;10218;42.874;25.320;2023-02-26T02:50:13;95969.25;;;16.33;46.01
20115;BME280;10218;42.874;25.320;2023-02-26T02:52:47;95972.56;;;16.23;46.37
20115;BME280;10218;42.874;25.320;2023-02-26T02:55:20;95990.22;;;16.31;46.60
20115;BME280;10218;42.874;25.320;2023-02-26T02:57:58;95993.06;;;16.24;46.67
20115;BME280;10218;42.874;25.320;2023-02-26T03:00:31;96001.25;;;16.18;46.75
20115;BME280;10218;42.874;25.320;2023-02-26T03:03:01;96010.50;;;16.22;46.86
20115;BME280;10218;42.874;25.320;2023-02-26T03:05:31;95991.44;;;16.12;47.95
20115;BME280;10218;42.874;25.320;2023-02-26T03:08:12;95991.41;;;15.65;49.89
20115;BME280;10218;42.874;25.320;2023-02-26T03:10:40;95994.66;;;15.56;50.99
20115;BME280;10218;42.874;25.320;2023-02-26T03:13:16;95989.53;;;15.54;51.37
20115;BME280;10218;42.874;25.320;2023-02-26T03:18:48;96026.91;;;15.44;51.01
20115;BME280;10218;42.874;25.320;2023-02-26T03:24:17;96002.22;;;15.47;51.71
20115;BME280;10218;42.874;25.320;2023-02-26T03:27:35;96002.19;;;15.35;52.32
20115;BME280;10218;42.874;25.320;2023-02-26T03:35:47;95990.13;;;15.26;53.29
20115;BME280;10218;42.874;25.320;2023-02-26T03:38:52;96032.22;;;15.21;52.89
20115;BME280;10218;42.874;25.320;2023-02-26T03:41:13;96014.69;;;15.30;52.40
20115;BME280;10218;42.874;25.320;2023-02-26T03:43:57;96010.22;;;15.24;52.94
20115;BME280;10218;42.874;25.320;2023-02-26T03:46:29;96018.62;;;15.16;53.60
20115;BME280;10218;42.874;25.320;2023-02-26T03:49:05;96008.34;;;15.13;54.35
20115;BME280;10218;42.874;25.320;2023-02-26T03:51:34;95992.00;;;15.26;52.32
20115;BME280;10218;42.874;25.320;2023-02-26T03:54:31;95996.00;;;15.05;54.87
20115;BME280;10218;42.874;25.320;2023-02-26T03:56:57;95994.06;;;15.24;52.55
20115;BME280;10218;42.874;25.320;2023-02-26T03:59:27;96004.88;;;15.35;52.23
20115;BME280;10218;42.874;25.320;2023-02-26T04:02:18;96023.66;;;15.12;53.75
20115;BME280;10218;42.874;25.320;2023-02-26T04:07:17;96018.03;;;15.14;54.14
20115;BME280;10218;42.874;25.320;2023-02-26T04:09:46;96004.00;;;15.12;53.59
20115;BME280;10218;42.874;25.320;2023-02-26T04:12:15;96012.59;;;15.32;52.55
20115;BME280;10218;42.874;25.320;2023-02-26T04:14:46;95996.47;;;15.32;52.70
20115;BME280;10218;42.874;25.320;2023-02-26T04:17:13;95986.00;;;15.24;52.54
20115;BME280;10218;42.874;25.320;2023-02-26T04:19:40;95977.97;;;15.35;52.55
20115;BME280;10218;42.874;25.320;2023-02-26T04:22:08;96012.66;;;15.14;54.30
20115;BME280;10218;42.874;25.320;2023-02-26T04:24:35;96014.75;;;15.12;55.67
20115;BME280;10218;42.874;25.320;2023-02-26T04:27:02;95994.56;;;15.21;56.02
20115;BME280;10218;42.874;25.320;2023-02-26T04:29:29;96008.09;;;15.14;56.21
20115;BME280;10218;42.874;25.320;2023-02-26T04:31:57;95993.81;;;15.14;57.03
20115;BME280;10218;42.874;25.320;2023-02-26T04:34:24;96009.50;;;15.17;56.72
20115;BME280;10218;42.874;25.320;2023-02-26T04:36:51;96028.22;;;14.93;57.12
20115;BME280;10218;42.874;25.320;2023-02-26T04:39:18;96019.41;;;15.05;55.62
20115;BME280;10218;42.874;25.320;2023-02-26T04:41:46;96043.34;;;15.24;55.10
20115;BME280;10218;42.874;25.320;2023-02-26T04:44:13;96038.25;;;15.46;52.62
20115;BME280;10218;42.874;25.320;2023-02-26T04:46:40;96031.09;;;15.40;53.60
20115;BME280;10218;42.874;25.320;2023-02-26T04:49:08;96025.72;;;15.40;53.94
20115;BME280;10218;42.874;25.320;2023-02-26T04:51:35;96038.37;;;15.10;55.42
20115;BME280;10218;42.874;25.320;2023-02-26T04:54:02;96027.75;;;15.15;55.29
20115;BME280;10218;42.874;25.320;2023-02-26T04:56:30;96015.03;;;14.92;57.59
20115;BME280;10218;42.874;25.320;2023-02-26T04:58:59;96001.31;;;15.12;57.15
20115;BME280;10218;42.874;25.320;2023-02-26T05:01:26;96007.50;;;14.82;58.77
20115;BME280;10218;42.874;25.320;2023-02-26T05:03:54;96028.69;;;14.90;57.73
20115;BME280;10218;42.874;25.320;2023-02-26T05:06:21;96018.72;;;15.09;56.97
20115;BME280;10218;42.874;25.320;2023-02-26T05:08:48;96039.25;;;15.22;56.37
20115;BME280;10218;42.874;25.320;2023-02-26T05:11:16;96017.44;;;15.12;57.51
20115;BME280;10218;42.874;25.320;2023-02-26T05:13:44;95993.38;;;14.87;59.86
20115;BME280;10218;42.874;25.320;2023-02-26T05:16:11;96020.63;;;14.90;60.81
20115;BME280;10218;42.874;25.320;2023-02-26T05:18:39;96034.34;;;15.01;60.36
20115;BME280;10218;42.874;25.320;2023-02-26T05:21:06;96025.41;;;14.88;62.46
20115;BME280;10218;42.874;25.320;2023-02-26T05:23:33;96051.78;;;14.80;65.01
20115;BME280;10218;42.874;25.320;2023-02-26T05:26:01;96065.22;;;14.80;66.83
20115;BME280;10218;42.874;25.320;2023-02-26T05:28:28;96078.44;;;14.63;70.87
20115;BME280;10218;42.874;25.320;2023-02-26T05:30:56;96071.09;;;14.88;71.67
20115;BME280;10218;42.874;25.320;2023-02-26T05:33:25;96076.19;;;14.78;75.34
20115;BME280;10218;42.874;25.320;2023-02-26T05:35:52;96087.88;;;14.72;81.82
20115;BME280;10218;42.874;25.320;2023-02-26T05:38:19;96095.91;;;14.90;82.89
20115;BME280;10218;42.874;25.320;2023-02-26T05:40:46;96079.88;;;14.66;90.45
20115;BME280;10218;42.874;25.320;2023-02-26T05:43:13;96079.34;;;14.57;96.00
20115;BME280;10218;42.874;25.320;2023-02-26T05:45:40;96088.44;;;14.56;99.61
20115;BME280;10218;42.874;25.320;2023-02-26T05:48:08;96099.63;;;14.53;100.00
20115;BME280;10218;42.874;25.320;2023-02-26T05:50:36;96106.28;;;14.50;100.00
20115;BME280;10218;42.874;25.320;2023-02-26T05:53:03;96109.81;;;14.69;100.00
20115;BME280;10218;42.874;25.320;2023-02-26T05:55:31;96124.44;;;14.55;100.00
20115;BME280;10218;42.874;25.320;2023-02-26T05:57:58;96128.34;;;14.77;100.00
20115;BME280;10218;42.874;25.320;2023-02-26T06:00:26;96121.91;;;14.78;100.00
20115;BME280;10218;42.874;25.320;2023-02-26T06:02:53;96119.53;;;14.70;100.00
20115;BME280;10218;42.874;25.320;2023-02-26T06:05:20;96126.75;;;14.70;100.00
20115;BME280;10218;42.874;25.320;2023-02-26T06:07:47;96143.09;;;14.68;100.00
20115;BME280;10218;42.874;25.320;2023-02-26T06:10:14;96133.31;;;14.74;100.00
20115;BME280;10218;42.874;25.320;2023-02-26T06:12:42;96146.69;;;14.62;100.00
20115;BME280;10218;42.874;25.320;2023-02-26T06:15:09;96143.28;;;14.91;100.00
20115;BME280;10218;42.874;25.320;2023-02-26T06:17:37;96142.44;;;15.09;100.00
20115;BME280;10218;42.874;25.320;2023-02-26T06:20:07;96150.28;;;14.74;100.00
20115;BME280;10218;42.874;25.320;2023-02-26T06:22:34;96160.37;;;15.33;100.00
20115;BME280;10218;42.874;25.320;2023-02-26T06:25:01;96150.84;;;15.49;100.00
20115;BME280;10218;42.874;25.320;2023-02-26T06:27:28;96137.88;;;14.73;100.00
20115;BME280;10218;42.874;25.320;2023-02-26T06:29:55;96130.56;;;14.98;100.00
20115;BME280;10218;42.874;25.320;2023-02-26T06:32:23;96127.38;;;15.08;100.00
20115;BME280;10218;42.874;25.320;2023-02-26T06:34:50;96127.59;;;15.55;100.00
20115;BME280;10218;42.874;25.320;2023-02-26T06:37:17;96127.38;;;15.08;100.00
20115;BME280;10218;42.874;25.320;2023-02-26T06:39:44;96114.44;;;14.98;100.00
20115;BME280;10218;42.874;25.320;2023-02-26T06:42:11;96120.28;;;15.62;100.00
20115;BME280;10218;42.874;25.320;2023-02-26T06:44:38;96115.63;;;15.69;100.00
20115;BME280;10218;42.874;25.320;2023-02-26T06:47:06;96099.75;;;15.31;100.00
20115;BME280;10218;42.874;25.320;2023-02-26T06:49:33;96126.00;;;14.99;100.00
20115;BME280;10218;42.874;25.320;2023-02-26T06:52:00;96100.09;;;15.05;100.00
20115;BME280;10218;42.874;25.320;2023-02-26T06:54:27;96091.59;;;15.37;100.00
20115;BME280;10218;42.874;25.320;2023-02-26T06:56:54;96097.44;;;15.94;100.00
20115;BME280;10218;42.874;25.320;2023-02-26T06:59:23;96088.84;;;15.26;100.00
20115;BME280;10218;42.874;25.320;2023-02-26T07:01:51;96075.06;;;15.52;100.00
20115;BME280;10218;42.874;25.320;2023-02-26T07:04:18;96078.75;;;15.69;100.00
20115;BME280;10218;42.874;25.320;2023-02-26T07:06:46;96081.13;;;15.89;100.00
20115;BME280;10218;42.874;25.320;2023-02-26T07:09:14;96079.25;;;15.00;100.00
20115;BME280;10218;42.874;25.320;2023-02-26T07:11:41;96076.88;;;15.81;100.00
20115;BME280;10218;42.874;25.320;2023-02-26T07:14:08;96080.00;;;15.37;100.00
20115;BME280;10218;42.874;25.320;2023-02-26T07:16:35;96081.94;;;15.18;100.00
20115;BME280;10218;42.874;25.320;2023-02-26T07:19:02;96088.00;;;15.44;100.00
20115;BME280;10218;42.874;25.320;2023-02-26T07:21:29;96062.72;;;15.86;100.00
20115;BME280;10218;42.874;25.320;2023-02-26T07:23:56;96047.41;;;15.87;100.00
20115;BME280;10218;42.874;25.320;2023-02-26T07:26:23;96050.91;;;15.87;100.00
20115;BME280;10218;42.874;25.320;2023-02-26T07:28:50;96046.13;;;16.01;100.00
20115;BME280;10218;42.874;25.320;2023-02-26T07:31:18;96041.47;;;16.19;100.00
20115;BME280;10218;42.874;25.320;2023-02-26T07:33:45;96042.97;;;16.04;100.00
20115;BME280;10218;42.874;25.320;2023-02-26T07:36:12;96036.97;;;16.48;96.59
20115;BME280;10218;42.874;25.320;2023-02-26T07:38:39;96038.47;;;16.56;92.32
20115;BME280;10218;42.874;25.320;2023-02-26T07:41:06;96031.25;;;16.21;96.69
20115;BME280;10218;42.874;25.320;2023-02-26T07:43:33;96010.28;;;16.58;92.68
20115;BME280;10218;42.874;25.320;2023-02-26T07:46:01;96021.87;;;16.71;87.65
20115;BME280;10218;42.874;25.320;2023-02-26T07:48:28;96019.94;;;16.83;85.79
20115;BME280;10218;42.874;25.320;2023-02-26T07:50:55;96019.28;;;17.32;79.17
20115;BME280;10218;42.874;25.320;2023-02-26T07:53:22;95988.12;;;17.25;76.08
20115;BME280;10218;42.874;25.320;2023-02-26T07:55:49;96008.59;;;17.82;71.96
20115;BME280;10218;42.874;25.320;2023-02-26T07:58:17;95994.06;;;17.55;68.62
20115;BME280;10218;42.874;25.320;2023-02-26T08:00:44;96003.34;;;17.47;71.34
20115;BME280;10218;42.874;25.320;2023-02-26T08:03:12;95981.03;;;17.07;73.95
20115;BME280;10218;42.874;25.320;2023-02-26T08:05:39;95983.41;;;17.32;71.24
20115;BME280;10218;42.874;25.320;2023-02-26T08:08:06;95979.13;;;17.36;71.12
20115;BME280;10218;42.874;25.320;2023-02-26T08:10:33;95949.75;;;16.66;73.83
20115;BME280;10218;42.874;25.320;2023-02-26T08:13:00;95958.44;;;16.68;73.83
20115;BME280;10218;42.874;25.320;2023-02-26T08:15:27;95945.38;;;17.05;69.13
20115;BME280;10218;42.874;25.320;2023-02-26T08:17:54;95951.41;;;16.95;66.71
20115;BME280;10218;42.874;25.320;2023-02-26T08:20:22;95970.72;;;16.76;66.18
20115;BME280;10218;42.874;25.320;2023-02-26T08:22:49;95945.91;;;17.19;63.31
20115;BME280;10218;42.874;25.320;2023-02-26T08:25:17;95945.25;;;16.83;65.21
20115;BME280;10218;42.874;25.320;2023-02-26T08:27:44;95941.38;;;17.07;64.19
20115;BME280;10218;42.874;25.320;2023-02-26T08:30:12;95945.44;;;17.38;62.78
20115;BME280;10218;42.874;25.320;2023-02-26T08:32:39;95924.72;;;17.27;63.62
20115;BME280;10218;42.874;25.320;2023-02-26T08:35:08;95956.97;;;17.50;60.96
20115;BME280;10218;42.874;25.320;2023-02-26T08:37:36;95930.13;;;17.44;60.95
20115;BME280;10218;42.874;25.320;2023-02-26T08:40:05;95973.16;;;17.34;57.42
20115;BME280;10218;42.874;25.320;2023-02-26T08:42:32;95967.47;;;17.64;56.59
20115;BME280;10218;42.874;25.320;2023-02-26T08:44:59;95957.56;;;18.03;54.46
20115;BME280;10218;42.874;25.320;2023-02-26T08:47:27;95953.31;;;17.57;56.02
20115;BME280;10218;42.874;25.320;2023-02-26T08:49:55;95961.78;;;17.77;55.87
20115;BME280;10218;42.874;25.320;2023-02-26T08:52:22;95982.72;;;17.70;55.24
20115;BME280;10218;42.874;25.320;2023-02-26T08:54:49;95989.03;;;17.02;58.63
20115;BME280;10218;42.874;25.320;2023-02-26T08:57:16;95944.59;;;16.93;62.86
20115;BME280;10218;42.874;25.320;2023-02-26T08:59:43;95951.66;;;17.39;60.52
20115;BME280;10218;42.874;25.320;2023-02-26T09:02:11;95956.59;;;17.14;62.85
20115;BME280;10218;42.874;25.320;2023-02-26T09:04:38;95957.38;;;17.26;64.20
20115;BME280;10218;42.874;25.320;2023-02-26T09:07:05;95919.47;;;17.04;65.87
20115;BME280;10218;42.874;25.320;2023-02-26T09:09:33;95926.28;;;17.23;63.00
20115;BME280;10218;42.874;25.320;2023-02-26T09:12:00;95936.19;;;17.51;60.87
20115;BME280;10218;42.874;25.320;2023-02-26T09:14:27;95917.22;;;17.63;60.44
20115;BME280;10218;42.874;25.320;2023-02-26T09:16:54;95928.84;;;17.97;59.12
20115;BME280;10218;42.874;25.320;2023-02-26T09:19:22;95949.25;;;17.87;58.90
20115;BME280;10218;42.874;25.320;2023-02-26T09:21:48;95946.56;;;18.09;58.32
20115;BME280;10218;42.874;25.320;2023-02-26T09:24:16;95932.63;;;18.56;57.08
20115;BME280;10218;42.874;25.320;2023-02-26T09:26:43;95956.56;;;18.09;54.09
20115;BME280;10218;42.874;25.320;2023-02-26T09:29:10;95939.28;;;18.70;52.64
20115;BME280;10218;42.874;25.320;2023-02-26T09:31:39;95933.69;;;18.55;53.86
20115;BME280;10218;42.874;25.320;2023-02-26T09:34:06;95947.56;;;18.85;52.33
20115;BME280;10218;42.874;25.320;2023-02-26T09:36:35;95969.31;;;18.52;52.88
20115;BME280;10218;42.874;25.320;2023-02-26T09:39:03;95968.97;;;18.65;52.77
20115;BME280;10218;42.874;25.320;2023-02-26T09:41:35;95934.38;;;18.67;52.54
20115;BME280;10218;42.874;25.320;2023-02-26T09:49:39;95977.31;;;18.42;52.32
20115;BME280;10218;42.874;25.320;2023-02-26T09:52:30;95985.97;;;18.60;51.88
20115;BME280;10218;42.874;25.320;2023-02-26T09:55:28;95976.91;;;18.93;53.09
20115;BME280;10218;42.874;25.320;2023-02-26T09:58:02;95984.44;;;19.13;51.79
20115;BME280;10218;42.874;25.320;2023-02-26T10:00:40;95992.50;;;18.86;53.20
20115;BME280;10218;42.874;25.320;2023-02-26T10:12:02;96022.16;;;18.04;56.89
20115;BME280;10218;42.874;25.320;2023-02-26T10:17:50;95999.91;;;17.80;59.15
20115;BME280;10218;42.874;25.320;2023-02-26T10:20:25;96001.19;;;18.28;56.08
20115;BME280;10218;42.874;25.320;2023-02-26T10:23:00;95993.34;;;17.93;58.12
20115;BME280;10218;42.874;25.320;2023-02-26T10:26:01;96015.03;;;18.15;57.40
20115;BME280;10218;42.874;25.320;2023-02-26T10:37:21;96004.66;;;18.07;55.83
20115;BME280;10218;42.874;25.320;2023-02-26T10:42:16;95984.06;;;18.61;54.54
20115;BME280;10218;42.874;25.320;2023-02-26T10:45:01;96025.22;;;18.63;53.91
20115;BME280;10218;42.874;25.320;2023-02-26T10:47:42;96005.00;;;18.49;54.31
20115;BME280;10218;42.874;25.320;2023-02-26T10:50:15;96000.50;;;18.98;53.06
20115;BME280;10218;42.874;25.320;2023-02-26T10:52:44;95998.91;;;18.03;55.45
20115;BME280;10218;42.874;25.320;2023-02-26T10:55:35;96015.41;;;18.57;54.92
20115;BME280;10218;42.874;25.320;2023-02-26T10:58:09;95990.09;;;17.91;57.42
20115;BME280;10218;42.874;25.320;2023-02-26T11:00:39;96014.09;;;18.43;56.01
20115;BME280;10218;42.874;25.320;2023-02-26T11:03:07;96008.13;;;18.79;54.17
20115;BME280;10218;42.874;25.320;2023-02-26T11:05:38;95996.19;;;18.03;56.13
20115;BME280;10218;42.874;25.320;2023-02-26T11:08:19;95967.41;;;18.30;55.65
20115;BME280;10218;42.874;25.320;2023-02-26T11:10:54;95980.56;;;18.82;53.86
20115;BME280;10218;42.874;25.320;2023-02-26T11:13:24;95985.91;;;19.26;53.05
20115;BME280;10218;42.874;25.320;2023-02-26T11:15:55;95997.66;;;18.66;53.63
20115;BME280;10218;42.874;25.320;2023-02-26T11:18:45;95964.88;;;19.33;52.18
20115;BME280;10218;42.874;25.320;2023-02-26T11:21:20;95959.09;;;20.20;50.34
20115;BME280;10218;42.874;25.320;2023-02-26T11:23:53;95955.13;;;19.90;50.00
20115;BME280;10218;42.874;25.320;2023-02-26T11:26:25;95966.69;;;19.00;51.67
20115;BME280;10218;42.874;25.320;2023-02-26T11:28:54;95961.97;;;19.12;51.51
20115;BME280;10218;42.874;25.320;2023-02-26T11:31:22;95968.22;;;18.69;53.06
20115;BME280;10218;42.874;25.320;2023-02-26T11:34:07;95939.69;;;19.59;50.42
20115;BME280;10218;42.874;25.320;2023-02-26T11:36:39;95952.19;;;19.11;51.45
20115;BME280;10218;42.874;25.320;2023-02-26T11:39:15;95963.34;;;19.42;50.71
20115;BME280;10218;42.874;25.320;2023-02-26T11:41:45;95941.28;;;19.55;50.57
20115;BME280;10218;42.874;25.320;2023-02-26T11:44:15;95979.00;;;19.98;49.87
20115;BME280;10218;42.874;25.320;2023-02-26T11:46:51;95984.22;;;20.05;48.52
20115;BME280;10218;42.874;25.320;2023-02-26T11:49:21;95941.78;;;19.52;48.95
20115;BME280;10218;42.874;25.320;2023-02-26T11:54:34;95956.94;;;20.22;47.60
20115;BME280;10218;42.874;25.320;2023-02-26T11:57:04;95967.97;;;19.73;49.10
20115;BME280;10218;42.874;25.320;2023-02-26T11:59:32;95973.59;;;20.35;48.26
20115;BME280;10218;42.874;25.320;2023-02-26T12:02:10;95955.25;;;18.93;51.03
20115;BME280;10218;42.874;25.320;2023-02-26T12:04:43;95951.03;;;18.80;50.68
20115;BME280;10218;42.874;25.320;2023-02-26T12:07:13;95997.69;;;18.49;52.21
20115;BME280;10218;42.874;25.320;2023-02-26T12:09:41;95994.88;;;18.22;51.74
20115;BME280;10218;42.874;25.320;2023-02-26T12:20:42;95990.38;;;18.50;50.49
20115;BME280;10218;42.874;25.320;2023-02-26T12:28:53;96022.47;;;18.58;51.78
20115;BME280;10218;42.874;25.320;2023-02-26T12:51:51;96005.38;;;20.40;49.21
20115;BME280;10218;42.874;25.320;2023-02-26T13:06:01;95953.19;;;19.54;50.25
20115;BME280;10218;42.874;25.320;2023-02-26T13:08:57;95977.63;;;18.84;50.89
20115;BME280;10218;42.874;25.320;2023-02-26T13:14:29;95950.31;;;19.66;49.73
20115;BME280;10218;42.874;25.320;2023-02-26T13:19:36;95932.91;;;18.81;50.63
20115;BME280;10218;42.874;25.320;2023-02-26T13:27:28;95926.00;;;18.47;51.17
20115;BME280;10218;42.874;25.320;2023-02-26T13:30:16;95911.53;;;18.36;51.65
20115;BME280;10218;42.874;25.320;2023-02-26T13:32:46;95929.88;;;18.34;51.85
20115;BME280;10218;42.874;25.320;2023-02-26T13:35:34;95982.72;;;18.42;51.13
20115;BME280;10218;42.874;25.320;2023-02-26T13:38:29;95946.19;;;17.84;52.74
20115;BME280;10218;42.874;25.320;2023-02-26T13:41:26;95939.88;;;17.95;52.12
20115;BME280;10218;42.874;25.320;2023-02-26T13:53:41;95968.16;;;17.87;52.88
20115;BME280;10218;42.874;25.320;2023-02-26T14:04:22;95996.53;;;17.73;53.79
20115;BME280;10218;42.874;25.320;2023-02-26T14:07:10;96032.91;;;17.54;54.34
20115;BME280;10218;42.874;25.320;2023-02-26T14:10:11;96050.53;;;17.57;54.27
20115;BME280;10218;42.874;25.320;2023-02-26T14:13:10;96008.16;;;17.90;53.66
20115;BME280;10218;42.874;25.320;2023-02-26T14:16:08;96029.37;;;17.65;54.49
20115;BME280;10218;42.874;25.320;2023-02-26T14:26:36;96079.16;;;18.53;52.05
20115;BME280;10218;42.874;25.320;2023-02-26T14:32:10;96084.09;;;18.22;52.11
20115;BME280;10218;42.874;25.320;2023-02-26T14:34:50;96071.62;;;18.05;52.77
20115;BME280;10218;42.874;25.320;2023-02-26T14:37:24;96119.47;;;18.54;51.34
20115;BME280;10218;42.874;25.320;2023-02-26T14:39:59;96092.69;;;18.03;52.41
20115;BME280;10218;42.874;25.320;2023-02-26T14:42:40;96099.19;;;18.18;51.19
20115;BME280;10218;42.874;25.320;2023-02-26T14:47:59;96068.19;;;17.92;52.25
20115;BME280;10218;42.874;25.320;2023-02-26T14:51:04;96063.59;;;18.26;52.14
20115;BME280;10218;42.874;25.320;2023-02-26T14:56:31;96052.75;;;17.60;53.25
20115;BME280;10218;42.874;25.320;2023-02-26T15:24:19;96062.78;;;16.44;61.34
20115;BME280;10218;42.874;25.320;2023-02-26T15:26:54;96050.47;;;16.25;62.41
20115;BME280;10218;42.874;25.320;2023-02-26T15:29:28;96076.47;;;16.31;63.22
20115;BME280;10218;42.874;25.320;2023-02-26T15:31:58;96068.87;;;16.28;63.71
20115;BME280;10218;42.874;25.320;2023-02-26T15:34:29;96075.31;;;16.27;64.84
20115;BME280;10218;42.874;25.320;2023-02-26T15:36:56;96069.91;;;16.27;65.65
20115;BME280;10218;42.874;25.320;2023-02-26T15:39:24;96091.94;;;16.24;66.69
20115;BME280;10218;42.874;25.320;2023-02-26T15:41:53;96115.03;;;16.32;65.95
20115;BME280;10218;42.874;25.320;2023-02-26T15:44:27;96118.09;;;16.35;66.21
20115;BME280;10218;42.874;25.320;2023-02-26T15:47:01;96113.84;;;16.27;66.78
20115;BME280;10218;42.874;25.320;2023-02-26T15:49:36;96123.13;;;16.20;67.97
20115;BME280;10218;42.874;25.320;2023-02-26T15:52:07;96134.25;;;16.23;67.89
20115;BME280;10218;42.874;25.320;2023-02-26T15:54:50;96124.97;;;16.08;69.07
20115;BME280;10218;42.874;25.320;2023-02-26T15:57:20;96121.22;;;16.09;69.83
20115;BME280;10218;42.874;25.320;2023-02-26T16:00:04;96169.38;;;16.17;69.79
20115;BME280;10218;42.874;25.320;2023-02-26T16:02:39;96162.13;;;16.17;70.13
20115;BME280;10218;42.874;25.320;2023-02-26T16:05:08;96162.00;;;16.36;69.37
20115;BME280;10218;42.874;25.320;2023-02-26T16:07:36;96190.09;;;16.05;70.94
20115;BME280;10218;42.874;25.320;2023-02-26T16:10:07;96199.78;;;15.94;72.07
20115;BME280;10218;42.874;25.320;2023-02-26T16:12:42;96194.53;;;15.99;72.48
20115;BME280;10218;42.874;25.320;2023-02-26T16:15:17;96239.38;;;15.94;73.00
20115;BME280;10218;42.874;25.320;2023-02-26T16:17:47;96183.22;;;15.91;73.97
20115;BME280;10218;42.874;25.320;2023-02-26T16:20:21;96209.66;;;16.12;74.02
20115;BME280;10218;42.874;25.320;2023-02-26T16:22:57;96218.47;;;16.19;72.81
20115;BME280;10218;42.874;25.320;2023-02-26T16:25:34;96225.63;;;15.83;75.33
20115;BME280;10218;42.874;25.320;2023-02-26T16:30:34;96219.59;;;16.00;75.19
20115;BME280;10218;42.874;25.320;2023-02-26T16:33:03;96214.56;;;15.73;77.43
20115;BME280;10218;42.874;25.320;2023-02-26T16:35:35;96217.69;;;15.70;78.17
20115;BME280;10218;42.874;25.320;2023-02-26T16:40:56;96206.78;;;15.65;79.41